Weather observations for the past three days for
Palestine, Palestine Municipal Airport
Imperial (Metric)
Date Time (cdt) Wind (mph) Vis. (mi.) Weather Sky Cond. Temperature (ºF) Relative Humidity Wind Chill (°F) Heat Index (°F) Pressure Precipitation (in)
Air Dwpt 6 hour altimeter (in) sea level (mb) 1 hr 3 hr 6 hr
Max. Min.
30 23:15 Calm 10.00 Fair CLR 80.6 71.6 74% 85 29.97 0.0
30 22:55 Calm 10.00 Fair CLR 80.6 71.6 74% 85 29.96 0.0
30 22:35 Calm 10.00 Fair CLR 80.6 71.6 74% 85 29.96 0.0
30 22:15 Calm 10.00 Fair CLR 82.4 71.6 70% 87 29.95 0.0
30 21:55 Calm 10.00 Fair CLR 82.4 71.6 70% 87 29.95 0.0
30 21:35 Calm 10.00 Fair CLR 82.4 71.6 70% 87 29.94 0.0
30 21:15 E 3 10.00 A Few Clouds FEW110 82.4 71.6 70% 87 29.93 0.0
30 20:55 Calm 10.00 Partly Cloudy SCT110 84.2 71.6 66% 90 29.92 0.0
30 20:35 Calm 10.00 A Few Clouds FEW110 86 71.6 62% 92 29.92 0.0
30 20:15 S 3 10.00 Fair CLR 89.6 66.2 46% 92 29.92 0.0
30 19:55 S 3 10.00 Fair CLR 91.4 66.2 44% 94 29.92 0.0
30 19:35 Calm 10.00 Fair CLR 93.2 64.4 39% 95 29.92 0.0
30 19:15 SE 3 10.00 Fair CLR 95 64.4 36% 97 29.91 0.0
30 18:55 SE 5 10.00 Fair CLR 95 62.6 34% 96 29.91 0.0
30 18:35 SE 7 10.00 Fair CLR 96.8 62.6 32% 98 29.92 0.0
30 18:15 Calm 10.00 Fair CLR 98.6 60.8 29% 99 29.92 0.0
30 17:55 SE 6 10.00 Fair CLR 98.6 60.8 29% 99 29.92 0.0
30 17:35 Vrbl 5 9.00 Fair CLR 98.6 60.8 29% 99 29.92 0.0
30 17:15 Vrbl 5 10.00 Fair CLR 98.6 60.8 29% 99 29.92 0.0
30 16:55 Vrbl 5 10.00 Fair CLR 98.6 62.6 31% 100 29.93 0.0
30 16:35 Vrbl 5 10.00 Fair CLR 98.6 62.6 31% 100 29.93 0.0
30 16:15 S 7 10.00 Fair CLR 98.6 62.6 31% 100 29.94 0.0
30 15:55 S 8 10.00 Fair CLR 98.6 60.8 29% 99 29.95 0.0
30 15:35 Vrbl 5 10.00 Fair CLR 95 62.6 34% 96 29.96 0.0
30 15:15 Vrbl 5 10.00 Fair CLR 96.8 62.6 32% 98 29.96 0.0
30 14:55 S 9 10.00 Fair CLR 98.6 62.6 31% 100 29.98 0.0
30 14:35 Vrbl 6 G 13 10.00 Fair CLR 96.8 62.6 32% 98 29.98 0.0
30 14:15 SW 7 10.00 Fair CLR 96.8 62.6 32% 98 29.99 0.0
30 13:55 Vrbl 7 10.00 Fair CLR 96.8 62.6 32% 98 30 0.0
30 13:35 SW 7 G 14 10.00 Fair CLR 95 64.4 36% 97 30.01 0.0
30 13:15 S 12 G 17 10.00 Fair CLR 95 64.4 36% 97 30.02 0.0
30 12:55 SW 3 G 13 10.00 Fair CLR 93.2 64.4 39% 95 30.03 0.0
30 12:35 Vrbl 6 G 13 10.00 Fair CLR 93.2 66.2 41% 96 30.03 0.0
30 12:15 Vrbl 5 G 12 10.00 Fair CLR 91.4 68 46% 96 30.04 0.0
30 11:55 Vrbl 7 G 15 10.00 Fair CLR 91.4 68 46% 96 30.05 0.0
30 11:35 SW 7 10.00 Fair CLR 89.6 69.8 52% 95 30.06 0.0
30 11:15 SW 6 G 13 10.00 Fair CLR 89.6 69.8 52% 95 30.06 0.0
30 10:55 SW 5 10.00 Fair CLR 87.8 73.4 62% 96 30.06 0.0
30 10:35 Vrbl 3 G 13 10.00 Fair CLR 86 73.4 66% 93 30.06 0.0
30 10:15 S 8 9.00 Fair CLR 86 75.2 70% 95 30.06 0.0
30 09:55 S 8 9.00 Fair CLR 84.2 75.2 74% 92 30.06 0.0
30 09:35 SW 9 9.00 Fair CLR 82.4 75.2 79% 89 30.06 0.0
30 09:15 SW 7 9.00 Fair CLR 82.4 75.2 79% 89 30.06 0.0
30 08:55 SW 6 G 12 9.00 Fair CLR 80.6 75.2 84% 86 30.06 0.0
30 08:35 S 5 8.00 Fair CLR 78.8 75.2 89% 82 30.06 0.0
30 08:15 S 6 8.00 Fair CLR 77 75.2 94% 78 30.05 0.0
30 07:55 SE 5 8.00 Fair CLR 77 75.2 94% 78 30.05 0.0
30 07:35 SE 3 8.00 Fair CLR 75.2 75.2 100% 73 30.04 0.0
30 07:15 Calm 7.00 Fair CLR 75.2 73.4 94% 74 30.03 0.0
30 06:55 SE 5 8.00 Fair CLR 75.2 73.4 94% 74 30.03 0.0
30 06:35 S 5 9.00 Fair CLR 75.2 73.4 94% 74 30.02 0.0
30 06:15 SE 3 9.00 Fair CLR 75.2 73.4 94% 74 30.02 0.0
30 05:55 SE 3 9.00 Fair CLR 75.2 73.4 94% 74 30.01 0.0
30 05:35 Calm 9.00 Fair CLR 75.2 73.4 94% 74 30.01 0.0
30 05:15 SE 3 9.00 Fair CLR 77 73.4 89% 78 30.01 0.0
30 04:55 SE 3 9.00 Fair CLR 77 73.4 89% 78 30.01 0.0
30 04:35 SE 5 9.00 Fair CLR 77 73.4 89% 78 30.01 0.0
30 04:15 Calm 9.00 Fair CLR 77 71.6 83% 78 30.01 0.0
30 03:55 S 3 9.00 Fair CLR 77 71.6 83% 78 30 0.0
30 03:35 SE 3 10.00 Fair CLR 77 71.6 83% 78 30 0.0
30 03:15 SE 3 10.00 Fair CLR 78.8 71.6 79% 82 30 0.0
30 02:55 Calm 10.00 Fair CLR 78.8 71.6 79% 82 30 0.0
30 02:35 SE 5 10.00 Fair CLR 78.8 69.8 74% 81 30 0.0
30 02:15 SE 3 10.00 Fair CLR 80.6 69.8 70% 84 30 0.0
30 01:55 Calm 10.00 Fair CLR 80.6 69.8 70% 84 30.01 0.0
30 01:35 SE 5 10.00 A Few Clouds FEW085 82.4 68 62% 85 30.01 0.0
30 01:15 SE 5 10.00 Mostly Cloudy BKN085 84.2 68 58% 87 30 0.0
30 00:55 SE 6 10.00 Mostly Cloudy BKN085 84.2 68 58% 87 30 0.0
30 00:35 Calm 10.00 Fair CLR 82.4 68 62% 85 29.99 0.0
30 00:15 E 7 10.00 Fair CLR 78.8 69.8 74% 81 29.99 0.0
29 23:55 E 5 10.00 Fair CLR 77 71.6 83% 78 29.99 0.0
29 23:35 SE 5 10.00 Fair CLR 78.8 69.8 74% 81 29.98 0.0
29 23:15 SE 5 10.00 Fair CLR 78.8 71.6 79% 82 29.98 0.0
29 22:55 Calm 10.00 Fair CLR 80.6 69.8 70% 84 29.98 0.0
29 22:35 SE 3 10.00 Fair CLR 80.6 71.6 74% 85 29.98 0.0
29 22:15 Calm 8.00 Fair CLR 80.6 71.6 74% 85 29.97 0.0
29 21:55 Calm 10.00 Fair CLR 80.6 71.6 74% 85 29.97 0.0
29 21:35 Calm 10.00 Fair CLR 82.4 69.8 66% 86 29.97 0.0
29 21:15 Calm 10.00 Fair CLR 82.4 71.6 70% 87 29.96 0.0
29 20:55 Calm 8.00 Fair CLR 84.2 69.8 62% 88 29.96 0.0
29 20:35 Calm 10.00 Fair CLR 86 68 55% 89 29.95 0.0
29 20:15 Calm 10.00 Fair CLR 87.8 68 52% 91 29.95 0.0
29 19:55 Calm 10.00 A Few Clouds FEW100 91.4 60.8 36% 91 29.94 0.0
29 19:35 S 3 10.00 Partly Cloudy SCT100 93.2 60.8 34% 93 29.95 0.0
29 19:15 S 5 10.00 A Few Clouds FEW090 95 60.8 32% 95 29.94 0.0
29 18:55 SE 6 10.00 Partly Cloudy FEW090 SCT110 96.8 59 28% 96 29.94 0.0
29 18:35 Calm 10.00 Mostly Cloudy BKN095 98.6 59 27% 98 29.94 0.0
29 18:15 Calm 10.00 Mostly Cloudy BKN090 100.4 57.2 24% 100 29.94 0.0
29 17:55 S 6 10.00 Fair CLR 98.6 57.2 25% 98 29.94 0.0
29 17:35 Vrbl 3 10.00 Fair CLR 98.6 57.2 25% 98 29.95 0.0
29 17:15 Vrbl 5 10.00 A Few Clouds FEW120 98.6 59 27% 98 29.95 0.0
29 16:55 SE 5 10.00 Partly Cloudy SCT110 98.6 59 27% 98 29.96 0.0
29 16:35 S 8 10.00 Partly Cloudy SCT110 98.6 60.8 29% 99 29.96 0.0
29 16:15 NW 5 10.00 Fair CLR 98.6 59 27% 98 29.97 0.0
29 15:55 Calm 10.00 A Few Clouds FEW120 98.6 59 27% 98 29.98 0.0
29 15:35 S 6 10.00 Fair CLR 98.6 60.8 29% 99 29.99 0.0
29 15:15 Vrbl 7 10.00 Fair CLR 98.6 60.8 29% 99 29.99 0.0
29 14:55 Calm 10.00 Fair CLR 98.6 60.8 29% 99 30.01 0.0
29 14:35 S 8 G 14 10.00 Fair CLR 98.6 62.6 31% 100 30.01 0.0
29 14:15 NW 3 10.00 A Few Clouds FEW070 96.8 62.6 32% 98 30.02 0.0
29 13:55 W 5 10.00 Fair CLR 95 62.6 34% 96 30.03 0.0
29 13:35 SW 9 10.00 Fair CLR 96.8 64.4 34% 99 30.04 0.0
29 13:15 Vrbl 7 10.00 Fair CLR 96.8 64.4 34% 99 30.05 0.0
29 12:55 Vrbl 6 10.00 Fair CLR 95 66.2 39% 98 30.06 0.0
29 12:35 Vrbl 5 9.00 Fair CLR 95 68 41% 100 30.06 0.0
29 12:15 Vrbl 7 10.00 Fair CLR 93.2 68 44% 98 30.07 0.0
29 11:55 SE 5 10.00 Fair CLR 91.4 69.8 49% 97 30.07 0.0
29 11:35 Vrbl 3 10.00 Fair CLR 91.4 68 46% 96 30.08 0.0
29 11:15 Vrbl 5 10.00 Fair CLR 89.6 69.8 52% 95 30.08 0.0
29 10:55 Calm 10.00 Fair CLR 89.6 69.8 52% 95 30.08 0.0
29 10:35 Calm 10.00 Fair CLR 87.8 71.6 59% 94 30.08 0.0
29 10:15 Calm 10.00 Fair CLR 86 71.6 62% 92 30.08 0.0
29 09:55 Calm 10.00 Fair CLR 84.2 71.6 66% 90 30.08 0.0
29 09:35 Calm 10.00 Fair CLR 82.4 69.8 66% 86 30.09 0.0
29 09:15 Calm 9.00 Fair CLR 82.4 69.8 66% 86 30.09 0.0
29 08:55 Calm 9.00 Fair CLR 80.6 71.6 74% 85 30.09 0.0
29 08:35 Calm 8.00 Fair CLR 78.8 71.6 79% 82 30.08 0.0
29 08:15 Calm 8.00 Fair CLR 75.2 71.6 89% 75 30.08 0.0
29 07:55 Calm 7.00 Fair CLR 73.4 71.6 94% 30.08 0.0
29 07:35 Calm 7.00 Fair CLR 71.6 71.6 100% 30.07 0.0
29 06:55 Calm 7.00 Fair CLR 71.6 69.8 94% 30.07 0.0
29 06:35 Calm 8.00 Fair CLR 71.6 69.8 94% 30.06 0.0
29 06:15 Calm 9.00 Fair CLR 71.6 71.6 100% 30.06 0.0
29 05:55 Calm 9.00 Fair CLR 71.6 69.8 94% 30.06 0.0 0.02
29 05:35 Calm 9.00 Fair CLR 73.4 71.6 94% 30.05 0.0
29 05:15 Calm 9.00 Fair CLR 73.4 71.6 94% 30.05 0.0
29 04:55 S 5 9.00 Fair CLR 73.4 71.6 94% 30.05 0.0
29 04:35 Calm 9.00 Fair CLR 73.4 71.6 94% 30.05 0.0
29 04:15 S 3 9.00 Fair CLR 73.4 71.6 94% 30.05 0.0
29 03:55 Calm 9.00 Fair CLR 73.4 71.6 94% 30.05 0.0
29 03:35 Calm 10.00 Fair CLR 73.4 71.6 94% 30.05 0.0
29 03:15 Calm 10.00 Fair CLR 75.2 71.6 89% 75 30.05 0.0
29 02:55 Calm 10.00 Fair CLR 75.2 71.6 89% 75 30.05 0.0
29 02:35 Calm 10.00 Fair CLR 75.2 71.6 89% 75 30.05 0.0
29 02:15 Calm 10.00 Fair CLR 75.2 69.8 83% 75 30.04 0.0
29 01:55 Calm 10.00 A Few Clouds FEW110 75.2 71.6 89% 75 30.04 0.0
29 01:35 Calm 10.00 Fair CLR 77 71.6 83% 78 30.05 0.0
29 01:15 Calm 10.00 Fair CLR 78.8 69.8 74% 81 30.05 0.0
29 00:55 Calm 10.00 Fair CLR 77 71.6 83% 78 30.05 0.0
29 00:35 Calm 10.00 Fair CLR 78.8 71.6 79% 82 30.04 0.0
29 00:15 Calm 10.00 Fair CLR 78.8 71.6 79% 82 30.05 0.0
28 23:55 Calm 10.00 Fair CLR 78.8 71.6 79% 82 30.05 0.0
28 23:35 Calm 10.00 Fair CLR 78.8 71.6 79% 82 30.04 0.0
28 23:15 Calm 7.00 Fair CLR 80.6 71.6 74% 85 30.03 0.0
28 22:55 Calm 10.00 A Few Clouds FEW090 FEW110 82.4 69.8 66% 86 30.03 0.0
28 22:35 S 3 10.00 Mostly Cloudy BKN085 BKN110 82.4 69.8 66% 86 30.02 0.0
28 22:15 SE 3 9.00 Partly Cloudy SCT090 SCT120 82.4 69.8 66% 86 30.02 0.0
28 21:55 S 3 9.00 A Few Clouds FEW090 84.2 68 58% 87 30.01 0.0
28 21:35 S 7 9.00 Partly Cloudy SCT090 86 68 55% 89 30 0.0
28 21:15 S 6 8.00 Mostly Cloudy BKN090 86 68 55% 89 29.99 0.0
28 20:55 S 7 10.00 A Few Clouds FEW095 87.8 68 52% 91 29.98 0.0
28 20:35 S 7 10.00 Partly Cloudy SCT095 87.8 66.2 49% 90 29.96 0.0
28 19:55 S 10 G 22 9.00 Fair CLR 91.4 62.6 38% 92 29.95 0.0 0.01
28 19:35 SE 5 10.00 Fair CLR 93.2 60.8 34% 93 29.94 0.0
28 19:15 SE 7 10.00 Fair CLR 95 60.8 32% 95 29.95 0.0
28 18:55 SE 5 10.00 A Few Clouds FEW090 96.8 60.8 30% 97 29.94 0.0 0.01
28 18:35 SE 6 10.00 A Few Clouds FEW090 96.8 60.8 30% 97 29.94 0.0
28 18:15 SE 3 10.00 Fair CLR 100.4 55.4 22% 99 29.94 0.0
28 17:55 E 8 10.00 Partly Cloudy FEW095 SCT110 100.4 57.2 24% 100 29.93 0.0
28 17:35 E 6 10.00 A Few Clouds FEW090 100.4 57.2 24% 100 29.93 0.0
28 17:15 NE 7 10.00 A Few Clouds FEW090 100.4 55.4 22% 99 29.94 0.0
28 16:55 E 10 10.00 Partly Cloudy SCT090 100.4 57.2 24% 100 29.94 0.0
28 16:35 Calm 10.00 A Few Clouds FEW090 100.4 57.2 24% 100 29.95 0.0
28 16:15 NE 6 G 13 10.00 Mostly Cloudy BKN090 98.6 59 27% 98 29.96 0.0
28 15:55 SE 5 10.00 A Few Clouds FEW090 100.4 59 25% 100 29.96 0.0
28 15:35 SE 5 G 12 10.00 Fair CLR 96.8 60.8 30% 97 29.98 0.0
28 15:15 NE 9 10.00 Partly Cloudy SCT080 100.4 60.8 27% 101 29.99 0.0
28 14:55 E 5 G 12 10.00 Mostly Cloudy BKN080 100.4 60.8 27% 101 30 0.0
28 14:35 Vrbl 6 10.00 A Few Clouds FEW075 FEW110 98.6 60.8 29% 99 30.01 0.0
28 14:15 SE 9 10.00 A Few Clouds FEW070 98.6 62.6 31% 100 30.01 0.0
28 13:55 Vrbl 6 10.00 Fair CLR 98.6 64.4 33% 101 30.02 0.0
28 13:35 SE 7 10.00 Fair CLR 98.6 66.2 35% 103 30.03 0.0
28 13:15 SE 8 10.00 Partly Cloudy SCT055 SCT065 96.8 66.2 37% 100 30.04 0.0
28 12:55 Calm 10.00 Partly Cloudy SCT055 95 68 41% 100 30.05 0.0
28 12:35 Calm 10.00 Fair CLR 95 69.8 44% 101 30.05 0.0
28 12:15 Vrbl 5 10.00 Fair CLR 93.2 69.8 47% 99 30.06 0.0
28 11:55 Vrbl 7 9.00 Fair CLR 93.2 73.4 53% 103 30.07 0.0
28 11:35 Calm 9.00 Fair CLR 91.4 73.4 56% 100 30.07 0.0
28 11:15 SE 6 9.00 Fair CLR 91.4 73.4 56% 100 30.07 0.0
28 10:55 Vrbl 3 9.00 Fair CLR 89.6 75.2 63% 100 30.07 0.0 0.01
28 10:35 Calm 10.00 Fair CLR 87.8 75.2 66% 98 30.07 0.0
28 10:15 Calm 9.00 Fair CLR 86 75.2 70% 95 30.06 0.0
28 09:35 SE 3 9.00 Fair CLR 82.4 75.2 79% 89 30.05 0.0
28 09:15 SE 5 9.00 Fair CLR 82.4 75.2 79% 89 30.05 0.0
28 08:55 SE 5 8.00 Fair CLR 80.6 75.2 84% 86 30.05 0.0
28 08:35 Vrbl 6 8.00 Fair CLR 78.8 75.2 89% 82 30.05 0.0
28 08:15 SE 5 7.00 Fair CLR 78.8 75.2 89% 82 30.05 0.0
28 07:55 SE 5 7.00 Fair CLR 77 75.2 94% 78 30.05 0.0
28 07:35 SE 3 7.00 Fair CLR 77 75.2 94% 78 30.04 0.0
28 07:15 Calm 6.00 Fog/Mist CLR 75.2 75.2 100% 73 30.04 0.0
28 06:55 Calm 6.00 Fog/Mist CLR 75.2 75.2 100% 73 30.03 0.0
28 06:35 Calm 8.00 Fair CLR 75.2 75.2 100% 73 30.03 0.0
28 06:15 E 5 8.00 Fair CLR 77 75.2 94% 78 30.02 0.0
28 05:55 E 3 8.00 Fair CLR 77 75.2 94% 78 30.01 0.0
28 05:35 E 3 9.00 Fair CLR 77 75.2 94% 78 30.01 0.0
28 05:15 E 3 9.00 Fair CLR 77 75.2 94% 78 30.01 0.0
28 04:55 SE 5 9.00 Fair CLR 77 75.2 94% 78 30.01 0.0
28 04:35 SE 5 9.00 Fair CLR 77 75.2 94% 78 30.01 0.0
28 04:15 SE 3 9.00 Fair CLR 77 75.2 94% 78 30.01 0.0
28 03:55 Calm 9.00 Fair CLR 78.8 75.2 89% 82 30.01 0.0
28 03:35 Calm 9.00 Fair CLR 77 75.2 94% 78 30.01 0.0
28 03:15 NE 3 9.00 Fair CLR 78.8 75.2 89% 82 30.01 0.0
28 02:55 Calm 9.00 Fair CLR 78.8 75.2 89% 82 30.01 0.0
28 02:35 SE 5 9.00 Fair CLR 78.8 73.4 84% 82 30.01 0.0
28 02:15 SE 5 9.00 Fair CLR 78.8 73.4 84% 82 30.01 0.0
28 01:55 SE 5 9.00 Fair CLR 80.6 73.4 79% 85 30.01 0.0
28 01:35 SE 5 9.00 Fair CLR 80.6 73.4 79% 85 30.01 0.0
28 01:15 SE 6 10.00 Fair CLR 80.6 73.4 79% 85 30.01 0.0
28 00:55 SE 7 10.00 Fair CLR 80.6 73.4 79% 85 30.01 0.0 0.01
28 00:35 SE 7 9.00 Fair CLR 80.6 73.4 79% 85 30.01 0.0
28 00:15 Calm 9.00 Fair CLR 78.8 75.2 89% 82 30 0.0
27 23:55 Calm 9.00 A Few Clouds FEW050 80.6 75.2 84% 86 30 0.0 0.01
27 23:35 Calm 9.00 A Few Clouds FEW050 78.8 75.2 89% 82 30 0.0
Date Time (cdt) Wind (mph) Vis. (mi.) Weather Sky Cond. Air Dwpt Max. Min. Relative Humidity Wind Chill (°F) Heat Index (°F) altimeter (in) sea level (mb) 1 hr 3 hr 6 hr
6 hour
Temperature (ºF) Pressure Precipitation (in)